Terminal Aerodrome Forecast
Issued by NWS Chicago, IL

Home | Current Version | Previous Version | Text Only | Print | Product List | Glossary On
Versions: 1 2 3 4 5 6 7 8 9 10 11 12 13 14 15 16 17 18 19 20 21 22 23 24 25 26 27 28 29 30 31 32 33 34 35 36
000
FTUS43 KLOT 030500
TAFRFD
TAF
KRFD 030520Z 0306/0406 VRB03KT P6SM SKC
     FM031000 20002KT 4SM BR BCFG SKC
     FM031400 21008KT P6SM FEW120
     FM032000 18010KT P6SM SCT120=

USA.gov is the U.S. government's official web portal to all federal, state and local government web resources and services.